Aérodrome :
LOGIN :

S'inscrire | Disclaimer

   EN    FR    IT 

 










Légende :    VFR   VFR Marginal   IFR   IFR Intensif   IFR Très Intensif
Visi : 
Plafond : 
>= 8 km
>= 3000ft
5 à 8 km
1000 à 3000 ft
1500m à 5 km
500 à 1000 ft
800 à 1500m
200 à 500 ft
< 800m
< 200 ft
Symboles :   Orages  Brouillard  Fortes neiges  Fortes précipitations  Vent > 20 kt
SIGMETs :   Divers  Orages  Givrage  Turbulence  Onde Orograph.  Cendres Volcan.







- Altitude de l'aérodrome : 218 ft
- Code IATA : LBG
- Voir les cartes d'approche


LFPB - Paris / Le Bourget

DERNIER METAR :
  • 220600Z AUTO 25008KT 220V280 9999 OVC025 11/06 Q1017 NOSIG

METARs EXPIRÉS :
  • 220530Z AUTO 25010KT 210V280 9999 BKN026 OVC031 11/06 Q1017 TEMPO BKN013
  • 220500Z AUTO 25011KT 9999 OVC027 11/06 Q1017 TEMPO BKN013
  • 220430Z AUTO 25011KT 230V290 9999 OVC026 11/06 Q1017 TEMPO BKN013
  • 220400Z AUTO 25011KT 9999 OVC029 11/06 Q1017 TEMPO BKN013
  • 220330Z AUTO 25011KT 9999 BKN027 OVC032 11/06 Q1017 TEMPO BKN013
  • 220300Z AUTO 25011KT 9999 BKN025 OVC030 11/07 Q1017 TEMPO BKN013

TAF TAF LFPB
Valide du 22 à 06h jusqu'au 23 à 06h UTC


220500Z 2206/2306 24012KT 9999 BKN020
PROB30
TEMPO 2208/2213 BKN011
TEMPO 2210/2306 23015G25KT
PROB30
TEMPO 2303/2306 BKN012
ATIS : +33 1 48 62 43 92
Pas de NOTAMs connus pour ce terrain.
1 SIGMET publié pour la FIR Paris (LFFF) :
 
Turbulence forte
LFFF SIGMET 1 VALID 220300/220700 LFPW
LFFF PARIS FIR/UIR SEV TURB FCST WI N5000 W00015 - N5115 E00200 - N5045 E00315 - N4945 E00145 SFC/FL050 STNR NC=



MET'MAP, la Météo Aéronautique d'un coup d'oeil ! - Copyright ORBIFLY Décembre 2007 - Disclaimer

ORBIFLY MET'MAP TEAM :

Programmation & Développement : Alexandra Zaïnal
Conception & Développement : Baudouin d'Aumeries
Co-Programmation & Développement : Marc-Olivier Méhu
Soutien technique & logistique : Manuel Goepfert

Contact : metmap@orbifly.com




SOURCES & CREDITS :

   NOAA